sensor_id;sensor_type;location;lat;lon;timestamp;temperature;humidity
23497;DHT22;11925;48.122;11.560;2023-02-13T00:01:22;8.50;97.20
23497;DHT22;11925;48.122;11.560;2023-02-13T00:03:51;8.50;97.30
23497;DHT22;11925;48.122;11.560;2023-02-13T00:06:21;8.50;97.20
23497;DHT22;11925;48.122;11.560;2023-02-13T00:08:49;8.60;97.20
23497;DHT22;11925;48.122;11.560;2023-02-13T00:11:18;8.50;97.30
23497;DHT22;11925;48.122;11.560;2023-02-13T00:13:47;8.40;97.30
23497;DHT22;11925;48.122;11.560;2023-02-13T00:16:15;8.50;97.40
23497;DHT22;11925;48.122;11.560;2023-02-13T00:18:43;8.50;97.40
23497;DHT22;11925;48.122;11.560;2023-02-13T00:21:12;8.70;97.60
23497;DHT22;11925;48.122;11.560;2023-02-13T00:23:42;8.50;97.40
23497;DHT22;11925;48.122;11.560;2023-02-13T00:26:12;8.50;97.40
23497;DHT22;11925;48.122;11.560;2023-02-13T00:28:43;8.50;97.50
23497;DHT22;11925;48.122;11.560;2023-02-13T00:31:14;8.50;97.50
23497;DHT22;11925;48.122;11.560;2023-02-13T00:33:43;8.50;97.50
23497;DHT22;11925;48.122;11.560;2023-02-13T00:36:13;8.50;97.50
23497;DHT22;11925;48.122;11.560;2023-02-13T00:38:45;8.50;97.90
23497;DHT22;11925;48.122;11.560;2023-02-13T00:41:14;8.50;97.50
23497;DHT22;11925;48.122;11.560;2023-02-13T00:43:44;8.50;97.50
23497;DHT22;11925;48.122;11.560;2023-02-13T00:46:12;8.50;97.50
23497;DHT22;11925;48.122;11.560;2023-02-13T00:48:41;8.50;97.70
23497;DHT22;11925;48.122;11.560;2023-02-13T00:51:10;8.50;97.60
23497;DHT22;11925;48.122;11.560;2023-02-13T00:53:38;8.50;97.60
23497;DHT22;11925;48.122;11.560;2023-02-13T00:56:08;8.50;97.50
23497;DHT22;11925;48.122;11.560;2023-02-13T00:58:37;8.50;97.40
23497;DHT22;11925;48.122;11.560;2023-02-13T01:01:06;8.50;97.50
23497;DHT22;11925;48.122;11.560;2023-02-13T01:03:34;8.50;97.60
23497;DHT22;11925;48.122;11.560;2023-02-13T01:06:03;8.50;97.60
23497;DHT22;11925;48.122;11.560;2023-02-13T01:08:32;8.50;97.60
23497;DHT22;11925;48.122;11.560;2023-02-13T01:11:00;8.50;97.70
23497;DHT22;11925;48.122;11.560;2023-02-13T01:13:30;8.50;97.80
23497;DHT22;11925;48.122;11.560;2023-02-13T01:15:59;8.50;97.70
23497;DHT22;11925;48.122;11.560;2023-02-13T01:18:27;8.50;97.70
23497;DHT22;11925;48.122;11.560;2023-02-13T01:20:57;8.50;97.70
23497;DHT22;11925;48.122;11.560;2023-02-13T01:23:29;8.50;97.70
23497;DHT22;11925;48.122;11.560;2023-02-13T01:25:58;8.50;97.70
23497;DHT22;11925;48.122;11.560;2023-02-13T01:28:27;8.50;98.10
23497;DHT22;11925;48.122;11.560;2023-02-13T01:30:57;8.50;97.90
23497;DHT22;11925;48.122;11.560;2023-02-13T01:33:27;8.50;97.90
23497;DHT22;11925;48.122;11.560;2023-02-13T01:35:56;8.50;97.90
23497;DHT22;11925;48.122;11.560;2023-02-13T01:38:27;8.50;98.30
23497;DHT22;11925;48.122;11.560;2023-02-13T01:40:55;8.80;97.90
23497;DHT22;11925;48.122;11.560;2023-02-13T01:43:41;8.60;97.80
23497;DHT22;11925;48.122;11.560;2023-02-13T01:46:12;8.50;97.80
23497;DHT22;11925;48.122;11.560;2023-02-13T01:48:42;8.50;98.00
23497;DHT22;11925;48.122;11.560;2023-02-13T01:51:13;8.50;97.90
23497;DHT22;11925;48.122;11.560;2023-02-13T01:53:48;9.00;98.10
23497;DHT22;11925;48.122;11.560;2023-02-13T01:56:22;8.50;98.00
23497;DHT22;11925;48.122;11.560;2023-02-13T01:58:55;8.50;97.80
23497;DHT22;11925;48.122;11.560;2023-02-13T02:01:27;8.40;97.80
23497;DHT22;11925;48.122;11.560;2023-02-13T02:03:58;8.50;97.90
23497;DHT22;11925;48.122;11.560;2023-02-13T02:06:34;8.50;98.00
23497;DHT22;11925;48.122;11.560;2023-02-13T02:09:06;8.50;98.00
23497;DHT22;11925;48.122;11.560;2023-02-13T02:11:41;8.50;97.90
23497;DHT22;11925;48.122;11.560;2023-02-13T02:14:14;8.50;97.90
23497;DHT22;11925;48.122;11.560;2023-02-13T02:16:43;8.50;97.90
23497;DHT22;11925;48.122;11.560;2023-02-13T02:19:17;8.50;98.10
23497;DHT22;11925;48.122;11.560;2023-02-13T02:22:10;8.50;97.90
23497;DHT22;11925;48.122;11.560;2023-02-13T02:25:03;8.50;98.10
23497;DHT22;11925;48.122;11.560;2023-02-13T02:28:09;8.50;98.00
23497;DHT22;11925;48.122;11.560;2023-02-13T02:31:17;8.50;98.00
23497;DHT22;11925;48.122;11.560;2023-02-13T02:33:55;8.50;98.00
23497;DHT22;11925;48.122;11.560;2023-02-13T02:36:42;8.50;98.00
23497;DHT22;11925;48.122;11.560;2023-02-13T02:39:19;8.50;98.00
23497;DHT22;11925;48.122;11.560;2023-02-13T02:41:58;8.50;97.90
23497;DHT22;11925;48.122;11.560;2023-02-13T02:44:34;8.50;97.90
23497;DHT22;11925;48.122;11.560;2023-02-13T02:47:16;8.50;98.00
23497;DHT22;11925;48.122;11.560;2023-02-13T02:50:24;8.40;97.90
23497;DHT22;11925;48.122;11.560;2023-02-13T02:53:03;8.30;97.80
23497;DHT22;11925;48.122;11.560;2023-02-13T02:55:41;8.50;97.90
23497;DHT22;11925;48.122;11.560;2023-02-13T02:58:18;8.50;97.70
23497;DHT22;11925;48.122;11.560;2023-02-13T03:01:08;8.50;97.80
23497;DHT22;11925;48.122;11.560;2023-02-13T03:03:58;8.50;97.80
23497;DHT22;11925;48.122;11.560;2023-02-13T03:06:48;8.50;97.80
23497;DHT22;11925;48.122;11.560;2023-02-13T03:09:20;8.40;97.90
23497;DHT22;11925;48.122;11.560;2023-02-13T03:12:08;8.50;97.90
23497;DHT22;11925;48.122;11.560;2023-02-13T03:14:54;8.40;97.90
23497;DHT22;11925;48.122;11.560;2023-02-13T03:17:22;8.40;97.90
23497;DHT22;11925;48.122;11.560;2023-02-13T03:20:22;8.50;98.30
23497;DHT22;11925;48.122;11.560;2023-02-13T03:23:25;8.50;97.90
23497;DHT22;11925;48.122;11.560;2023-02-13T03:26:31;8.40;98.40
23497;DHT22;11925;48.122;11.560;2023-02-13T03:29:19;8.40;98.10
23497;DHT22;11925;48.122;11.560;2023-02-13T03:32:15;8.40;98.00
23497;DHT22;11925;48.122;11.560;2023-02-13T03:34:49;8.40;97.90
23497;DHT22;11925;48.122;11.560;2023-02-13T03:37:38;8.40;98.10
23497;DHT22;11925;48.122;11.560;2023-02-13T03:40:29;8.30;97.90
23497;DHT22;11925;48.122;11.560;2023-02-13T03:43:07;8.40;97.80
23497;DHT22;11925;48.122;11.560;2023-02-13T03:45:39;8.50;98.00
23497;DHT22;11925;48.122;11.560;2023-02-13T03:48:26;8.50;97.80
23497;DHT22;11925;48.122;11.560;2023-02-13T03:51:18;8.50;97.90
23497;DHT22;11925;48.122;11.560;2023-02-13T03:53:53;8.50;97.80
23497;DHT22;11925;48.122;11.560;2023-02-13T03:56:27;8.40;97.80
23497;DHT22;11925;48.122;11.560;2023-02-13T03:59:20;8.40;97.70
23497;DHT22;11925;48.122;11.560;2023-02-13T04:01:55;8.50;97.80
23497;DHT22;11925;48.122;11.560;2023-02-13T04:04:33;8.40;97.80
23497;DHT22;11925;48.122;11.560;2023-02-13T04:07:05;8.40;97.90
23497;DHT22;11925;48.122;11.560;2023-02-13T04:09:37;8.50;97.80
23497;DHT22;11925;48.122;11.560;2023-02-13T04:12:15;8.50;97.90
23497;DHT22;11925;48.122;11.560;2023-02-13T04:14:49;8.50;97.80
23497;DHT22;11925;48.122;11.560;2023-02-13T04:17:23;8.50;97.80
23497;DHT22;11925;48.122;11.560;2023-02-13T04:19:54;8.50;97.80
23497;DHT22;11925;48.122;11.560;2023-02-13T04:22:22;8.40;97.90
23497;DHT22;11925;48.122;11.560;2023-02-13T04:24:51;8.40;97.90
23497;DHT22;11925;48.122;11.560;2023-02-13T04:27:22;8.40;97.80
23497;DHT22;11925;48.122;11.560;2023-02-13T04:29:52;8.50;97.70
23497;DHT22;11925;48.122;11.560;2023-02-13T04:32:20;8.50;97.80
23497;DHT22;11925;48.122;11.560;2023-02-13T04:34:49;8.40;97.80
23497;DHT22;11925;48.122;11.560;2023-02-13T04:37:17;8.40;97.70
23497;DHT22;11925;48.122;11.560;2023-02-13T04:39:45;8.40;97.70
23497;DHT22;11925;48.122;11.560;2023-02-13T04:42:13;8.50;97.50
23497;DHT22;11925;48.122;11.560;2023-02-13T04:44:43;8.40;97.60
23497;DHT22;11925;48.122;11.560;2023-02-13T04:47:11;8.30;97.60
23497;DHT22;11925;48.122;11.560;2023-02-13T04:49:39;8.30;97.50
23497;DHT22;11925;48.122;11.560;2023-02-13T04:52:08;8.30;97.50
23497;DHT22;11925;48.122;11.560;2023-02-13T04:54:36;8.30;97.50
23497;DHT22;11925;48.122;11.560;2023-02-13T04:57:04;8.30;97.50
23497;DHT22;11925;48.122;11.560;2023-02-13T04:59:32;8.30;97.50
23497;DHT22;11925;48.122;11.560;2023-02-13T05:02:02;8.50;97.60
23497;DHT22;11925;48.122;11.560;2023-02-13T05:04:30;8.30;97.50
23497;DHT22;11925;48.122;11.560;2023-02-13T05:06:59;8.20;97.50
23497;DHT22;11925;48.122;11.560;2023-02-13T05:09:27;8.30;97.50
23497;DHT22;11925;48.122;11.560;2023-02-13T05:11:55;8.30;97.50
23497;DHT22;11925;48.122;11.560;2023-02-13T05:14:23;8.30;97.50
23497;DHT22;11925;48.122;11.560;2023-02-13T05:16:52;8.20;97.50
23497;DHT22;11925;48.122;11.560;2023-02-13T05:19:21;8.20;97.50
23497;DHT22;11925;48.122;11.560;2023-02-13T05:21:50;8.30;97.50
23497;DHT22;11925;48.122;11.560;2023-02-13T05:24:36;8.10;97.30
23497;DHT22;11925;48.122;11.560;2023-02-13T05:27:04;8.20;97.40
23497;DHT22;11925;48.122;11.560;2023-02-13T05:29:32;8.10;97.40
23497;DHT22;11925;48.122;11.560;2023-02-13T05:32:00;8.70;97.60
23497;DHT22;11925;48.122;11.560;2023-02-13T05:34:30;8.20;97.40
23497;DHT22;11925;48.122;11.560;2023-02-13T05:36:58;8.10;97.50
23497;DHT22;11925;48.122;11.560;2023-02-13T05:39:27;8.10;97.50
23497;DHT22;11925;48.122;11.560;2023-02-13T05:41:55;8.00;97.40
23497;DHT22;11925;48.122;11.560;2023-02-13T05:44:23;8.00;97.40
23497;DHT22;11925;48.122;11.560;2023-02-13T05:46:52;8.00;97.50
23497;DHT22;11925;48.122;11.560;2023-02-13T05:49:20;8.00;97.50
23497;DHT22;11925;48.122;11.560;2023-02-13T05:51:50;8.00;97.40
23497;DHT22;11925;48.122;11.560;2023-02-13T05:54:19;8.00;97.50
23497;DHT22;11925;48.122;11.560;2023-02-13T05:56:47;8.00;97.50
23497;DHT22;11925;48.122;11.560;2023-02-13T05:59:16;8.00;97.50
23497;DHT22;11925;48.122;11.560;2023-02-13T06:01:44;8.10;97.40
23497;DHT22;11925;48.122;11.560;2023-02-13T06:04:13;7.50;97.20
23497;DHT22;11925;48.122;11.560;2023-02-13T06:06:41;8.00;97.20
23497;DHT22;11925;48.122;11.560;2023-02-13T06:09:12;8.10;97.40
23497;DHT22;11925;48.122;11.560;2023-02-13T06:11:41;8.00;97.30
23497;DHT22;11925;48.122;11.560;2023-02-13T06:14:10;8.00;97.40
23497;DHT22;11925;48.122;11.560;2023-02-13T06:16:40;8.00;97.30
23497;DHT22;11925;48.122;11.560;2023-02-13T06:19:08;8.00;97.40
23497;DHT22;11925;48.122;11.560;2023-02-13T06:21:37;8.00;97.60
23497;DHT22;11925;48.122;11.560;2023-02-13T06:24:06;8.00;97.50
23497;DHT22;11925;48.122;11.560;2023-02-13T06:26:36;8.10;97.40
23497;DHT22;11925;48.122;11.560;2023-02-13T06:29:05;8.00;97.50
23497;DHT22;11925;48.122;11.560;2023-02-13T06:31:35;8.20;97.50
23497;DHT22;11925;48.122;11.560;2023-02-13T06:34:03;7.90;97.70
23497;DHT22;11925;48.122;11.560;2023-02-13T06:36:32;8.00;97.40
23497;DHT22;11925;48.122;11.560;2023-02-13T06:39:03;8.00;97.30
23497;DHT22;11925;48.122;11.560;2023-02-13T06:41:32;8.00;97.40
23497;DHT22;11925;48.122;11.560;2023-02-13T06:44:02;7.90;97.50
23497;DHT22;11925;48.122;11.560;2023-02-13T06:46:30;7.80;97.40
23497;DHT22;11925;48.122;11.560;2023-02-13T06:48:59;8.00;97.50
23497;DHT22;11925;48.122;11.560;2023-02-13T06:51:27;7.90;97.50
23497;DHT22;11925;48.122;11.560;2023-02-13T06:53:56;8.10;97.50
23497;DHT22;11925;48.122;11.560;2023-02-13T06:56:24;8.10;97.50
23497;DHT22;11925;48.122;11.560;2023-02-13T06:58:53;8.20;97.60
23497;DHT22;11925;48.122;11.560;2023-02-13T07:01:23;8.20;97.70
23497;DHT22;11925;48.122;11.560;2023-02-13T07:03:51;8.10;97.60
23497;DHT22;11925;48.122;11.560;2023-02-13T07:06:20;8.10;97.60
23497;DHT22;11925;48.122;11.560;2023-02-13T07:08:48;8.20;97.70
23497;DHT22;11925;48.122;11.560;2023-02-13T07:11:22;8.20;97.50
23497;DHT22;11925;48.122;11.560;2023-02-13T07:13:51;8.20;97.60
23497;DHT22;11925;48.122;11.560;2023-02-13T07:16:19;8.20;97.80
23497;DHT22;11925;48.122;11.560;2023-02-13T07:18:49;8.20;98.00
23497;DHT22;11925;48.122;11.560;2023-02-13T07:21:20;8.30;98.20
23497;DHT22;11925;48.122;11.560;2023-02-13T07:23:48;9.00;98.30
23497;DHT22;11925;48.122;11.560;2023-02-13T07:26:17;8.30;98.00
23497;DHT22;11925;48.122;11.560;2023-02-13T07:28:46;8.30;97.90
23497;DHT22;11925;48.122;11.560;2023-02-13T07:31:15;8.00;97.80
23497;DHT22;11925;48.122;11.560;2023-02-13T07:33:43;8.30;98.00
23497;DHT22;11925;48.122;11.560;2023-02-13T07:36:16;8.20;97.90
23497;DHT22;11925;48.122;11.560;2023-02-13T07:38:45;8.20;97.70
23497;DHT22;11925;48.122;11.560;2023-02-13T07:41:13;8.20;97.80
23497;DHT22;11925;48.122;11.560;2023-02-13T07:43:42;8.20;97.90
23497;DHT22;11925;48.122;11.560;2023-02-13T07:46:10;8.20;97.90
23497;DHT22;11925;48.122;11.560;2023-02-13T07:48:38;8.10;97.80
23497;DHT22;11925;48.122;11.560;2023-02-13T07:51:07;8.10;97.90
23497;DHT22;11925;48.122;11.560;2023-02-13T07:53:37;8.00;97.90
23497;DHT22;11925;48.122;11.560;2023-02-13T07:56:06;8.10;98.00
23497;DHT22;11925;48.122;11.560;2023-02-13T07:58:35;8.10;97.90
23497;DHT22;11925;48.122;11.560;2023-02-13T08:01:07;8.00;97.90
23497;DHT22;11925;48.122;11.560;2023-02-13T08:03:35;8.00;98.00
23497;DHT22;11925;48.122;11.560;2023-02-13T08:06:04;8.00;98.00
23497;DHT22;11925;48.122;11.560;2023-02-13T08:08:34;7.90;98.10
23497;DHT22;11925;48.122;11.560;2023-02-13T08:11:06;7.90;98.10
23497;DHT22;11925;48.122;11.560;2023-02-13T08:13:53;8.00;98.00
23497;DHT22;11925;48.122;11.560;2023-02-13T08:16:21;8.00;98.00
23497;DHT22;11925;48.122;11.560;2023-02-13T08:18:49;8.00;98.00
23497;DHT22;11925;48.122;11.560;2023-02-13T08:21:18;7.90;98.10
23497;DHT22;11925;48.122;11.560;2023-02-13T08:23:46;8.00;98.20
23497;DHT22;11925;48.122;11.560;2023-02-13T08:26:19;7.90;98.30
23497;DHT22;11925;48.122;11.560;2023-02-13T08:28:47;7.90;98.20
23497;DHT22;11925;48.122;11.560;2023-02-13T08:31:16;8.00;98.40
23497;DHT22;11925;48.122;11.560;2023-02-13T08:33:44;8.00;98.10
23497;DHT22;11925;48.122;11.560;2023-02-13T08:36:12;7.90;98.20
23497;DHT22;11925;48.122;11.560;2023-02-13T08:38:41;8.00;98.10
23497;DHT22;11925;48.122;11.560;2023-02-13T08:41:09;7.90;98.30
23497;DHT22;11925;48.122;11.560;2023-02-13T08:43:39;7.90;98.20
23497;DHT22;11925;48.122;11.560;2023-02-13T08:46:07;7.90;98.30
23497;DHT22;11925;48.122;11.560;2023-02-13T08:48:36;7.80;98.30
23497;DHT22;11925;48.122;11.560;2023-02-13T08:51:05;7.80;98.30
23497;DHT22;11925;48.122;11.560;2023-02-13T08:53:36;7.70;98.40
23497;DHT22;11925;48.122;11.560;2023-02-13T08:56:05;7.60;98.30
23497;DHT22;11925;48.122;11.560;2023-02-13T08:58:33;7.80;98.40
23497;DHT22;11925;48.122;11.560;2023-02-13T09:01:07;7.80;98.40
23497;DHT22;11925;48.122;11.560;2023-02-13T09:03:35;7.80;98.40
23497;DHT22;11925;48.122;11.560;2023-02-13T09:06:04;7.90;98.20
23497;DHT22;11925;48.122;11.560;2023-02-13T09:08:34;7.90;98.20
23497;DHT22;11925;48.122;11.560;2023-02-13T09:11:03;8.10;98.30
23497;DHT22;11925;48.122;11.560;2023-02-13T09:13:34;8.20;98.40
23497;DHT22;11925;48.122;11.560;2023-02-13T09:16:05;8.10;98.10
23497;DHT22;11925;48.122;11.560;2023-02-13T09:18:34;7.90;98.00
23497;DHT22;11925;48.122;11.560;2023-02-13T09:21:04;8.10;98.10
23497;DHT22;11925;48.122;11.560;2023-02-13T09:23:36;8.10;98.20
23497;DHT22;11925;48.122;11.560;2023-02-13T09:26:08;8.10;98.20
23497;DHT22;11925;48.122;11.560;2023-02-13T09:28:37;8.10;98.10
23497;DHT22;11925;48.122;11.560;2023-02-13T09:31:08;8.20;98.00
23497;DHT22;11925;48.122;11.560;2023-02-13T09:33:38;8.20;98.40
23497;DHT22;11925;48.122;11.560;2023-02-13T09:36:08;8.20;98.40
23497;DHT22;11925;48.122;11.560;2023-02-13T09:38:36;8.10;98.30
23497;DHT22;11925;48.122;11.560;2023-02-13T09:41:07;8.20;98.40
23497;DHT22;11925;48.122;11.560;2023-02-13T09:43:43;8.20;98.30
23497;DHT22;11925;48.122;11.560;2023-02-13T09:46:16;8.10;98.10
23497;DHT22;11925;48.122;11.560;2023-02-13T09:48:48;8.10;98.10
23497;DHT22;11925;48.122;11.560;2023-02-13T09:51:19;8.00;98.20
23497;DHT22;11925;48.122;11.560;2023-02-13T09:53:52;7.90;98.10
23497;DHT22;11925;48.122;11.560;2023-02-13T09:56:39;8.10;98.10
23497;DHT22;11925;48.122;11.560;2023-02-13T09:59:29;7.90;98.10
23497;DHT22;11925;48.122;11.560;2023-02-13T10:02:21;7.90;98.00
23497;DHT22;11925;48.122;11.560;2023-02-13T10:04:58;7.90;98.10
23497;DHT22;11925;48.122;11.560;2023-02-13T10:07:33;7.90;98.10
23497;DHT22;11925;48.122;11.560;2023-02-13T10:10:12;8.30;98.20
23497;DHT22;11925;48.122;11.560;2023-02-13T10:12:55;7.90;98.10
23497;DHT22;11925;48.122;11.560;2023-02-13T10:15:30;7.90;98.00
23497;DHT22;11925;48.122;11.560;2023-02-13T10:18:04;7.90;98.00
23497;DHT22;11925;48.122;11.560;2023-02-13T10:20:37;7.90;98.00
23497;DHT22;11925;48.122;11.560;2023-02-13T10:23:16;7.80;98.20
23497;DHT22;11925;48.122;11.560;2023-02-13T10:25:48;7.80;98.20
23497;DHT22;11925;48.122;11.560;2023-02-13T10:28:25;7.90;98.00
23497;DHT22;11925;48.122;11.560;2023-02-13T10:30:58;8.10;98.10
23497;DHT22;11925;48.122;11.560;2023-02-13T10:33:33;8.00;98.40
23497;DHT22;11925;48.122;11.560;2023-02-13T10:36:10;8.20;98.60
23497;DHT22;11925;48.122;11.560;2023-02-13T10:38:44;8.00;98.50
23497;DHT22;11925;48.122;11.560;2023-02-13T10:41:23;8.20;98.50
23497;DHT22;11925;48.122;11.560;2023-02-13T10:44:11;8.30;98.70
23497;DHT22;11925;48.122;11.560;2023-02-13T10:46:50;8.20;98.60
23497;DHT22;11925;48.122;11.560;2023-02-13T10:49:33;8.10;98.50
23497;DHT22;11925;48.122;11.560;2023-02-13T10:52:10;8.10;98.20
23497;DHT22;11925;48.122;11.560;2023-02-13T10:55:04;8.00;98.10
23497;DHT22;11925;48.122;11.560;2023-02-13T10:57:45;8.10;98.20
23497;DHT22;11925;48.122;11.560;2023-02-13T11:00:24;8.00;98.20
23497;DHT22;11925;48.122;11.560;2023-02-13T11:02:57;8.00;98.20
23497;DHT22;11925;48.122;11.560;2023-02-13T11:05:31;8.00;98.20
23497;DHT22;11925;48.122;11.560;2023-02-13T11:07:59;8.00;98.20
23497;DHT22;11925;48.122;11.560;2023-02-13T11:10:29;7.90;98.30
23497;DHT22;11925;48.122;11.560;2023-02-13T11:13:14;8.00;98.40
23497;DHT22;11925;48.122;11.560;2023-02-13T11:15:59;7.80;98.40
23497;DHT22;11925;48.122;11.560;2023-02-13T11:18:31;7.80;98.60
23497;DHT22;11925;48.122;11.560;2023-02-13T11:21:10;8.00;98.50
23497;DHT22;11925;48.122;11.560;2023-02-13T11:23:43;8.00;98.40
23497;DHT22;11925;48.122;11.560;2023-02-13T11:26:15;8.00;98.40
23497;DHT22;11925;48.122;11.560;2023-02-13T11:28:52;7.90;98.50
23497;DHT22;11925;48.122;11.560;2023-02-13T11:31:24;7.80;98.40
23497;DHT22;11925;48.122;11.560;2023-02-13T11:33:54;7.90;98.50
23497;DHT22;11925;48.122;11.560;2023-02-13T11:36:30;7.90;98.50
23497;DHT22;11925;48.122;11.560;2023-02-13T11:39:01;7.70;98.40
23497;DHT22;11925;48.122;11.560;2023-02-13T11:41:38;8.10;98.60
23497;DHT22;11925;48.122;11.560;2023-02-13T11:44:21;8.10;98.40
23497;DHT22;11925;48.122;11.560;2023-02-13T11:46:51;8.00;98.40
23497;DHT22;11925;48.122;11.560;2023-02-13T11:49:21;8.10;98.40
23497;DHT22;11925;48.122;11.560;2023-02-13T11:51:53;8.10;98.40
23497;DHT22;11925;48.122;11.560;2023-02-13T11:54:29;8.10;98.40
23497;DHT22;11925;48.122;11.560;2023-02-13T11:56:59;8.50;98.60
23497;DHT22;11925;48.122;11.560;2023-02-13T11:59:42;8.20;98.40
23497;DHT22;11925;48.122;11.560;2023-02-13T12:02:17;8.10;98.40
23497;DHT22;11925;48.122;11.560;2023-02-13T12:04:47;8.00;98.40
23497;DHT22;11925;48.122;11.560;2023-02-13T12:07:20;8.00;98.50
23497;DHT22;11925;48.122;11.560;2023-02-13T12:09:54;8.10;98.50
23497;DHT22;11925;48.122;11.560;2023-02-13T12:12:29;8.10;98.50
23497;DHT22;11925;48.122;11.560;2023-02-13T12:15:01;8.10;98.40
23497;DHT22;11925;48.122;11.560;2023-02-13T12:17:31;8.60;98.70
23497;DHT22;11925;48.122;11.560;2023-02-13T12:20:01;8.10;98.50
23497;DHT22;11925;48.122;11.560;2023-02-13T12:22:38;8.10;98.40
23497;DHT22;11925;48.122;11.560;2023-02-13T12:25:26;8.10;98.50
23497;DHT22;11925;48.122;11.560;2023-02-13T12:28:10;8.10;98.60
23497;DHT22;11925;48.122;11.560;2023-02-13T12:31:11;8.00;98.70
23497;DHT22;11925;48.122;11.560;2023-02-13T12:36:57;8.10;98.70
23497;DHT22;11925;48.122;11.560;2023-02-13T12:39:33;8.10;98.80
23497;DHT22;11925;48.122;11.560;2023-02-13T12:42:20;8.10;98.80
23497;DHT22;11925;48.122;11.560;2023-02-13T12:45:09;8.20;99.10
23497;DHT22;11925;48.122;11.560;2023-02-13T12:47:50;8.20;99.30
23497;DHT22;11925;48.122;11.560;2023-02-13T12:50:35;8.10;99.00
23497;DHT22;11925;48.122;11.560;2023-02-13T12:53:15;8.30;99.00
23497;DHT22;11925;48.122;11.560;2023-02-13T12:56:11;8.20;99.10
23497;DHT22;11925;48.122;11.560;2023-02-13T13:02:02;8.30;99.10
23497;DHT22;11925;48.122;11.560;2023-02-13T13:04:43;8.30;99.10
23497;DHT22;11925;48.122;11.560;2023-02-13T13:07:31;8.30;99.10
23497;DHT22;11925;48.122;11.560;2023-02-13T13:13:16;8.30;99.20
23497;DHT22;11925;48.122;11.560;2023-02-13T13:15:52;8.30;99.30
23497;DHT22;11925;48.122;11.560;2023-02-13T13:18:34;8.40;99.20
23497;DHT22;11925;48.122;11.560;2023-02-13T13:21:14;8.30;99.30
23497;DHT22;11925;48.122;11.560;2023-02-13T13:23:48;8.40;99.10
23497;DHT22;11925;48.122;11.560;2023-02-13T13:26:24;8.40;99.10
23497;DHT22;11925;48.122;11.560;2023-02-13T13:29:04;8.40;99.30
23497;DHT22;11925;48.122;11.560;2023-02-13T13:31:35;8.40;99.20
23497;DHT22;11925;48.122;11.560;2023-02-13T13:34:06;8.50;99.20
23497;DHT22;11925;48.122;11.560;2023-02-13T13:36:39;8.40;99.30
23497;DHT22;11925;48.122;11.560;2023-02-13T13:39:18;8.50;99.40
23497;DHT22;11925;48.122;11.560;2023-02-13T13:41:53;8.40;99.30
23497;DHT22;11925;48.122;11.560;2023-02-13T13:44:51;8.40;99.10
23497;DHT22;11925;48.122;11.560;2023-02-13T13:47:30;8.40;99.20
23497;DHT22;11925;48.122;11.560;2023-02-13T13:50:03;8.20;99.20
23497;DHT22;11925;48.122;11.560;2023-02-13T13:52:34;8.40;99.20
23497;DHT22;11925;48.122;11.560;2023-02-13T13:55:04;8.40;99.20
23497;DHT22;11925;48.122;11.560;2023-02-13T14:00:36;8.40;99.20
23497;DHT22;11925;48.122;11.560;2023-02-13T14:03:22;8.40;99.20
23497;DHT22;11925;48.122;11.560;2023-02-13T14:06:03;8.30;99.20
23497;DHT22;11925;48.122;11.560;2023-02-13T14:09:03;8.40;99.20
23497;DHT22;11925;48.122;11.560;2023-02-13T14:11:43;8.40;99.10
23497;DHT22;11925;48.122;11.560;2023-02-13T14:20:00;8.40;99.20
23497;DHT22;11925;48.122;11.560;2023-02-13T14:22:38;8.40;99.20
23497;DHT22;11925;48.122;11.560;2023-02-13T14:25:21;8.40;99.20
23497;DHT22;11925;48.122;11.560;2023-02-13T14:27:58;8.40;99.20
23497;DHT22;11925;48.122;11.560;2023-02-13T14:30:28;8.40;99.30
23497;DHT22;11925;48.122;11.560;2023-02-13T14:33:03;8.40;99.20
23497;DHT22;11925;48.122;11.560;2023-02-13T14:35:34;8.40;99.30
23497;DHT22;11925;48.122;11.560;2023-02-13T14:38:05;8.40;99.10
23497;DHT22;11925;48.122;11.560;2023-02-13T14:40:46;8.40;99.20
23497;DHT22;11925;48.122;11.560;2023-02-13T14:43:34;8.40;99.20
23497;DHT22;11925;48.122;11.560;2023-02-13T14:46:21;8.20;99.10
23497;DHT22;11925;48.122;11.560;2023-02-13T14:48:56;8.20;99.10
23497;DHT22;11925;48.122;11.560;2023-02-13T14:51:32;8.50;99.20
23497;DHT22;11925;48.122;11.560;2023-02-13T14:54:06;8.40;99.10
23497;DHT22;11925;48.122;11.560;2023-02-13T14:56:37;8.40;99.00
23497;DHT22;11925;48.122;11.560;2023-02-13T14:59:11;8.40;98.90
23497;DHT22;11925;48.122;11.560;2023-02-13T15:01:46;8.40;99.10
23497;DHT22;11925;48.122;11.560;2023-02-13T15:04:23;8.40;99.10
23497;DHT22;11925;48.122;11.560;2023-02-13T15:06:53;8.40;99.10
23497;DHT22;11925;48.122;11.560;2023-02-13T15:09:31;8.40;99.10
23497;DHT22;11925;48.122;11.560;2023-02-13T15:12:00;8.40;99.10
23497;DHT22;11925;48.122;11.560;2023-02-13T15:14:33;8.40;99.10
23497;DHT22;11925;48.122;11.560;2023-02-13T15:17:06;8.40;99.10
23497;DHT22;11925;48.122;11.560;2023-02-13T15:19:43;8.40;99.00
23497;DHT22;11925;48.122;11.560;2023-02-13T15:22:19;8.50;99.20
23497;DHT22;11925;48.122;11.560;2023-02-13T15:24:48;8.50;99.30
23497;DHT22;11925;48.122;11.560;2023-02-13T15:27:24;8.50;99.00
23497;DHT22;11925;48.122;11.560;2023-02-13T15:29:55;8.40;99.10
23497;DHT22;11925;48.122;11.560;2023-02-13T15:32:31;8.40;99.10
23497;DHT22;11925;48.122;11.560;2023-02-13T15:35:01;8.40;99.30
23497;DHT22;11925;48.122;11.560;2023-02-13T15:37:30;8.40;99.30
23497;DHT22;11925;48.122;11.560;2023-02-13T15:40:18;8.50;99.30
23497;DHT22;11925;48.122;11.560;2023-02-13T15:42:49;8.60;99.70
23497;DHT22;11925;48.122;11.560;2023-02-13T15:45:19;8.50;99.20
23497;DHT22;11925;48.122;11.560;2023-02-13T15:47:49;8.50;99.30
23497;DHT22;11925;48.122;11.560;2023-02-13T15:50:28;8.40;99.30
23497;DHT22;11925;48.122;11.560;2023-02-13T15:52:58;8.40;99.50
23497;DHT22;11925;48.122;11.560;2023-02-13T15:55:29;8.50;99.50
23497;DHT22;11925;48.122;11.560;2023-02-13T15:57:59;8.50;99.40
23497;DHT22;11925;48.122;11.560;2023-02-13T16:00:31;8.50;99.40
23497;DHT22;11925;48.122;11.560;2023-02-13T16:03:02;8.50;99.50
23497;DHT22;11925;48.122;11.560;2023-02-13T16:05:36;8.50;99.50
23497;DHT22;11925;48.122;11.560;2023-02-13T16:08:29;8.50;99.50
23497;DHT22;11925;48.122;11.560;2023-02-13T16:11:17;8.50;99.60
23497;DHT22;11925;48.122;11.560;2023-02-13T16:14:14;8.50;99.60
23497;DHT22;11925;48.122;11.560;2023-02-13T16:16:47;8.50;99.50
23497;DHT22;11925;48.122;11.560;2023-02-13T16:19:24;8.50;99.50
23497;DHT22;11925;48.122;11.560;2023-02-13T16:21:56;8.50;99.50
23497;DHT22;11925;48.122;11.560;2023-02-13T16:24:26;8.50;99.50
23497;DHT22;11925;48.122;11.560;2023-02-13T16:26:55;8.40;99.50
23497;DHT22;11925;48.122;11.560;2023-02-13T16:29:24;8.50;99.40
23497;DHT22;11925;48.122;11.560;2023-02-13T16:32:02;8.50;99.40